Terminal Aerodrome Forecast
Issued by NWS

Home | Current Version | Previous Version | Text Only | Print | Product List | Glossary On
Versions: 1 2 3 4 5 6 7 8 9 10 11 12 13 14 15 16 17 18
000
FTUS41 KBTV 011002 AAA
TAFSLK
TAF AMD
KSLK 011002Z 0110/0206 VRB04KT 2SM -SN BR OVC015
      TEMPO 0110/0114 1 1/2SM -SN OVC020
     FM011500 32006KT P6SM SCT035 SCT200
     FM012000 02004KT P6SM BKN150 BKN200
     FM020400 VRB03KT P6SM OVC070=

USA.gov is the U.S. government's official web portal to all federal, state and local government web resources and services.